createdAt,value
2019-01-16T00:00:42.095Z,19.97
2019-01-16T00:03:34.830Z,20.07
2019-01-16T00:06:13.219Z,20.53
2019-01-16T00:09:05.577Z,27.47
2019-01-16T00:11:44.178Z,20.23
2019-01-16T00:14:49.344Z,21.43
2019-01-16T00:17:35.616Z,22.17
2019-01-16T00:20:55.712Z,18.93
2019-01-16T00:23:48.211Z,23.13
2019-01-16T00:26:40.781Z,23.80
2019-01-16T00:29:19.898Z,25.40
2019-01-16T00:32:18.859Z,22.63
2019-01-16T00:35:05.477Z,22.63
2019-01-16T00:37:58.177Z,26.27
2019-01-16T00:41:02.947Z,23.07
2019-01-16T00:43:48.223Z,19.53
2019-01-16T00:46:41.043Z,20.07
2019-01-16T00:49:46.622Z,21.30
2019-01-16T00:52:33.305Z,25.17
2019-01-16T00:55:17.857Z,20.23
2019-01-16T00:58:07.051Z,20.40
2019-01-16T01:01:01.463Z,20.43
2019-01-16T01:03:54.269Z,22.17
2019-01-16T01:06:40.969Z,17.90
2019-01-16T01:09:27.838Z,18.73
2019-01-16T01:12:26.864Z,18.07
2019-01-16T01:15:19.376Z,18.70
2019-01-16T01:18:40.697Z,18.53
2019-01-16T01:21:22.624Z,19.17
2019-01-16T01:24:10.726Z,21.37
2019-01-16T01:27:08.537Z,23.10
2019-01-16T01:30:01.081Z,21.27
2019-01-16T01:32:56.073Z,19.03
2019-01-16T01:35:42.724Z,16.77
2019-01-16T01:38:32.362Z,19.57
2019-01-16T01:41:17.966Z,28.60
2019-01-16T01:43:55.028Z,23.10
2019-01-16T01:46:33.691Z,19.33
2019-01-16T01:49:08.682Z,17.87
2019-01-16T01:51:44.879Z,19.40
2019-01-16T01:54:27.667Z,16.57
2019-01-16T01:57:10.410Z,20.23
2019-01-16T02:00:09.396Z,18.37
2019-01-16T02:02:55.287Z,19.77
2019-01-16T02:06:00.242Z,22.20
2019-01-16T02:08:59.074Z,19.40
2019-01-16T02:11:42.701Z,16.40
2019-01-16T02:14:38.633Z,21.43
2019-01-16T02:17:28.000Z,15.00
2019-01-16T02:20:51.258Z,18.03
2019-01-16T02:23:36.784Z,15.67
2019-01-16T02:26:22.360Z,16.90
2019-01-16T02:29:20.743Z,15.90
2019-01-16T02:32:10.561Z,17.77
2019-01-16T02:35:00.519Z,20.77
2019-01-16T02:37:45.994Z,20.30
2019-01-16T02:40:30.131Z,21.50
2019-01-16T02:43:13.991Z,22.03
2019-01-16T02:46:13.873Z,21.83
2019-01-16T02:48:56.106Z,21.80
2019-01-16T02:51:43.975Z,19.50
2019-01-16T02:54:29.306Z,18.43
2019-01-16T02:57:09.865Z,24.10
2019-01-16T03:00:08.458Z,22.50
2019-01-16T03:03:00.929Z,25.17
2019-01-16T03:05:59.652Z,25.93
2019-01-16T03:08:52.324Z,22.70
2019-01-16T03:11:41.830Z,19.67
2019-01-16T03:14:28.792Z,20.93
2019-01-16T03:17:26.725Z,22.57
2019-01-16T03:20:05.476Z,21.77
2019-01-16T03:22:51.136Z,21.37
2019-01-16T03:25:36.547Z,21.83
2019-01-16T03:28:22.151Z,19.63
2019-01-16T03:31:01.470Z,19.63
2019-01-16T03:33:48.096Z,24.87
2019-01-16T03:36:25.340Z,29.37
2019-01-16T03:39:12.070Z,18.80
2019-01-16T03:41:58.721Z,21.03
2019-01-16T03:44:31.761Z,21.80
2019-01-16T03:47:19.653Z,19.13
2019-01-16T03:50:06.266Z,18.10
2019-01-16T03:52:51.814Z,19.37
2019-01-16T03:55:50.851Z,20.20
2019-01-16T03:58:52.687Z,22.07
2019-01-16T04:01:39.300Z,18.43
2019-01-16T04:04:35.699Z,17.30
2019-01-16T04:07:24.554Z,16.17
2019-01-16T04:10:06.668Z,18.53
2019-01-16T04:12:40.516Z,19.50
2019-01-16T04:15:45.953Z,18.77
2019-01-16T04:18:47.679Z,17.90
2019-01-16T04:21:37.205Z,18.10
2019-01-16T04:24:24.018Z,20.13
2019-01-16T04:27:09.264Z,16.50
2019-01-16T04:29:56.106Z,20.73
2019-01-16T04:32:50.427Z,16.83
2019-01-16T04:35:40.069Z,15.37
2019-01-16T04:38:26.707Z,19.93
2019-01-16T04:41:24.208Z,16.27
2019-01-16T04:44:19.683Z,14.23
2019-01-16T04:47:15.311Z,13.90
2019-01-16T04:49:50.762Z,15.57
2019-01-16T04:52:37.249Z,18.57
2019-01-16T04:55:22.939Z,19.20
2019-01-16T04:58:08.361Z,17.70
2019-01-16T05:01:07.166Z,24.43
2019-01-16T05:03:55.999Z,19.00
2019-01-16T05:06:57.676Z,15.03
2019-01-16T05:09:43.284Z,16.30
2019-01-16T05:12:47.267Z,14.00
2019-01-16T05:15:36.973Z,13.17
2019-01-16T05:18:29.148Z,16.30
2019-01-16T05:21:18.559Z,13.30
2019-01-16T05:24:09.905Z,13.60
2019-01-16T05:26:58.795Z,11.90
2019-01-16T05:29:45.793Z,14.97
2019-01-16T05:32:32.319Z,14.83
2019-01-16T05:35:18.963Z,13.30
2019-01-16T05:38:03.697Z,13.80
2019-01-16T05:41:05.675Z,13.23
2019-01-16T05:43:52.336Z,11.40
2019-01-16T05:46:37.732Z,12.47
2019-01-16T05:49:30.668Z,8.97
2019-01-16T05:52:20.205Z,12.93
2019-01-16T05:55:09.624Z,13.37
2019-01-16T05:57:57.347Z,12.00
2019-01-16T06:00:40.401Z,11.20
2019-01-16T06:03:39.134Z,11.63
2019-01-16T06:06:24.416Z,9.07
2019-01-16T06:09:17.056Z,9.33
2019-01-16T06:12:05.469Z,9.20
2019-01-16T06:14:57.882Z,9.17
2019-01-16T06:17:53.889Z,8.87
2019-01-16T06:20:48.278Z,8.57
2019-01-16T06:23:38.088Z,10.93
2019-01-16T06:26:23.498Z,11.67
2019-01-16T06:29:16.689Z,12.50
2019-01-16T06:32:15.698Z,11.73
2019-01-16T06:35:01.193Z,8.27
2019-01-16T06:37:50.859Z,10.37
2019-01-16T06:40:40.305Z,8.80
2019-01-16T06:43:25.567Z,7.30
2019-01-16T06:46:18.600Z,7.03
2019-01-16T06:49:11.282Z,7.80
2019-01-16T06:52:09.900Z,8.27
2019-01-16T06:54:59.295Z,8.17
2019-01-16T06:57:43.031Z,8.23
2019-01-16T07:00:34.247Z,6.57
2019-01-16T07:03:39.311Z,6.57
2019-01-16T07:06:39.980Z,9.83
2019-01-16T07:09:27.212Z,12.27
2019-01-16T07:12:12.850Z,9.53
2019-01-16T07:14:58.376Z,8.30
2019-01-16T07:17:41.645Z,6.17
2019-01-16T07:20:43.707Z,7.83
2019-01-16T07:23:48.613Z,7.60
2019-01-16T07:26:38.861Z,12.40
2019-01-16T07:29:24.165Z,7.07
2019-01-16T07:32:17.031Z,7.77
2019-01-16T07:35:00.688Z,6.50
2019-01-16T07:37:48.961Z,8.13
2019-01-16T07:40:34.269Z,9.07
2019-01-16T07:43:09.582Z,7.30
2019-01-16T07:45:47.474Z,7.77
2019-01-16T07:48:37.068Z,5.90
2019-01-16T07:51:32.703Z,7.33
2019-01-16T07:54:28.732Z,5.23
2019-01-16T07:57:18.121Z,8.43
2019-01-16T08:00:04.779Z,9.33
2019-01-16T08:04:30.369Z,9.00
2019-01-16T08:07:21.137Z,6.80
2019-01-16T08:10:08.393Z,8.03
2019-01-16T08:12:58.061Z,5.47
2019-01-16T08:15:50.719Z,9.23
2019-01-16T08:18:26.822Z,7.67
2019-01-16T08:21:12.171Z,7.83
2019-01-16T08:24:01.843Z,7.40
2019-01-16T08:26:55.441Z,10.60
2019-01-16T08:29:42.195Z,10.00
2019-01-16T08:32:28.833Z,8.80
2019-01-16T08:35:14.292Z,12.77
2019-01-16T08:37:59.812Z,9.30
2019-01-16T08:40:38.541Z,13.30
2019-01-16T08:43:23.395Z,11.57
2019-01-16T08:46:10.230Z,13.10
2019-01-16T08:48:51.403Z,9.23
2019-01-16T08:51:47.344Z,10.17
2019-01-16T08:54:49.128Z,10.73
2019-01-16T08:57:38.595Z,10.83
2019-01-16T09:00:27.975Z,11.23
2019-01-16T09:03:14.665Z,15.83
2019-01-16T09:06:00.161Z,16.83
2019-01-16T09:08:40.985Z,16.40
2019-01-16T09:11:26.271Z,15.43
2019-01-16T09:14:04.997Z,16.63
2019-01-16T09:16:42.830Z,19.90
2019-01-16T09:19:36.377Z,18.23
2019-01-16T09:22:21.446Z,19.23
2019-01-16T09:25:05.916Z,14.30
2019-01-16T09:27:58.494Z,20.27
2019-01-16T09:31:07.277Z,24.23
2019-01-16T09:33:52.571Z,17.83
2019-01-16T09:36:38.211Z,19.27
2019-01-16T09:39:17.860Z,22.57
2019-01-16T09:42:11.832Z,22.10
2019-01-16T09:44:57.112Z,21.97
2019-01-16T09:47:42.682Z,23.10
2019-01-16T09:50:18.652Z,27.30
2019-01-16T09:53:17.484Z,24.43
2019-01-16T09:56:02.740Z,23.60
2019-01-16T09:59:04.720Z,21.13
2019-01-16T10:01:45.944Z,28.73
2019-01-16T10:04:32.808Z,18.03
2019-01-16T10:07:09.971Z,21.43
2019-01-16T10:09:55.238Z,20.43
2019-01-16T10:12:50.936Z,18.37
2019-01-16T10:15:35.814Z,19.20
2019-01-16T10:18:28.393Z,26.07
2019-01-16T10:21:13.629Z,18.97
2019-01-16T10:24:37.375Z,21.03
2019-01-16T10:27:25.139Z,21.03
2019-01-16T10:30:18.786Z,27.47
2019-01-16T10:33:08.319Z,18.00
2019-01-16T10:35:55.096Z,23.67
2019-01-16T10:38:40.435Z,21.03
2019-01-16T10:41:26.936Z,20.83
2019-01-16T10:44:12.719Z,19.77
2019-01-16T10:47:19.192Z,16.40
2019-01-16T10:50:12.176Z,16.53
2019-01-16T10:56:33.756Z,17.87
2019-01-16T10:59:20.438Z,16.13
2019-01-16T11:02:10.237Z,16.63
2019-01-16T11:05:15.396Z,15.73
2019-01-16T11:08:07.975Z,22.07
2019-01-16T11:10:53.457Z,20.97
2019-01-16T11:13:39.184Z,13.03
2019-01-16T11:16:27.155Z,21.13
2019-01-16T11:22:09.648Z,15.23
2019-01-16T11:25:04.171Z,13.17
2019-01-16T11:28:03.260Z,15.67
2019-01-16T11:30:50.010Z,15.93
2019-01-16T11:33:33.464Z,17.10
2019-01-16T11:36:19.060Z,18.73
2019-01-16T11:39:21.068Z,15.97
2019-01-16T11:42:28.615Z,11.87
2019-01-16T11:45:24.330Z,18.53
2019-01-16T11:48:09.669Z,14.57
2019-01-16T11:51:08.547Z,13.87
2019-01-16T11:54:04.187Z,17.07
2019-01-16T11:56:50.888Z,16.17
2019-01-16T11:59:40.401Z,20.67
2019-01-16T12:02:30.102Z,14.73
2019-01-16T12:05:14.281Z,19.13
2019-01-16T12:07:59.474Z,15.13
2019-01-16T12:10:54.788Z,12.10
2019-01-16T12:13:47.448Z,16.33
2019-01-16T12:16:34.074Z,15.20
2019-01-16T12:19:20.991Z,21.17
2019-01-16T12:21:59.472Z,15.40
2019-01-16T12:24:44.807Z,14.27
2019-01-16T12:27:49.868Z,18.37
2019-01-16T12:30:38.136Z,18.20
2019-01-16T12:33:37.025Z,18.97
2019-01-16T12:36:26.903Z,16.83
2019-01-16T12:39:25.529Z,14.47
2019-01-16T12:42:17.884Z,19.70
2019-01-16T12:45:03.817Z,13.90
2019-01-16T12:47:43.821Z,20.07
2019-01-16T12:50:31.001Z,21.90
2019-01-16T12:53:04.853Z,13.87
2019-01-16T12:55:49.966Z,18.93
2019-01-16T12:58:39.386Z,22.13
2019-01-16T13:01:41.410Z,20.13
2019-01-16T13:04:28.067Z,22.20
2019-01-16T13:10:08.415Z,16.27
2019-01-16T13:12:59.753Z,14.07
2019-01-16T13:15:43.676Z,18.67
2019-01-16T13:18:25.588Z,18.57
2019-01-16T13:21:11.004Z,19.77
2019-01-16T13:23:56.586Z,20.83
2019-01-16T13:26:36.770Z,17.83
2019-01-16T13:29:26.202Z,21.80
2019-01-16T13:32:19.843Z,13.60
2019-01-16T13:35:12.723Z,24.57
2019-01-16T13:38:08.732Z,20.80
2019-01-16T13:41:07.459Z,16.67
2019-01-16T13:43:54.080Z,25.50
2019-01-16T13:46:46.357Z,17.20
2019-01-16T13:49:35.860Z,20.83
2019-01-16T13:52:21.678Z,15.47
2019-01-16T13:55:08.333Z,18.67
2019-01-16T13:57:53.584Z,18.83
2019-01-16T14:00:39.176Z,16.30
2019-01-16T14:03:27.663Z,16.77
2019-01-16T14:06:13.307Z,12.40
2019-01-16T14:08:58.758Z,16.77
2019-01-16T14:12:03.937Z,15.77
2019-01-16T14:14:41.613Z,19.83
2019-01-16T14:17:37.152Z,19.30
2019-01-16T14:20:30.085Z,15.63
2019-01-16T14:23:22.580Z,16.30
2019-01-16T14:26:08.025Z,18.63
2019-01-16T14:29:11.505Z,14.70
2019-01-16T14:31:55.462Z,10.97
2019-01-16T14:34:35.168Z,19.37
2019-01-16T14:37:20.599Z,12.93
2019-01-16T14:40:22.684Z,14.00
2019-01-16T14:43:15.563Z,19.40
2019-01-16T14:46:12.435Z,20.50
2019-01-16T14:49:03.746Z,15.83
2019-01-16T14:51:59.593Z,14.63
2019-01-16T14:54:55.815Z,17.83
2019-01-16T14:57:48.474Z,17.63
2019-01-16T15:00:29.388Z,15.97
2019-01-16T15:06:31.405Z,10.63
2019-01-16T15:09:16.581Z,16.40
2019-01-16T15:12:03.430Z,16.50
2019-01-16T15:14:59.049Z,14.30
2019-01-16T15:17:44.478Z,21.50
2019-01-16T15:20:22.539Z,16.87
2019-01-16T15:23:12.556Z,15.77
2019-01-16T15:26:01.999Z,14.40
2019-01-16T15:28:45.947Z,14.43
2019-01-16T15:31:38.610Z,16.73
2019-01-16T15:34:43.665Z,14.57
2019-01-16T15:37:20.007Z,17.70
2019-01-16T15:40:06.650Z,24.43
2019-01-16T15:42:57.511Z,13.27
2019-01-16T15:45:44.276Z,20.60
2019-01-16T15:48:37.205Z,11.90
2019-01-16T15:51:29.758Z,10.97
2019-01-16T15:54:58.565Z,11.77
2019-01-16T15:57:51.545Z,14.43
2019-01-16T16:00:53.263Z,10.97
2019-01-16T16:03:37.461Z,17.60
2019-01-16T16:06:27.091Z,13.03
2019-01-16T16:09:11.098Z,14.47
2019-01-16T16:11:57.762Z,17.87
2019-01-16T16:14:44.470Z,15.40
2019-01-16T16:17:33.992Z,11.03
2019-01-16T16:20:16.076Z,20.03
2019-01-16T16:22:52.555Z,17.67
2019-01-16T16:25:38.074Z,19.13
2019-01-16T16:28:18.183Z,17.77
2019-01-16T16:31:20.151Z,26.90
2019-01-16T16:34:05.549Z,16.23
2019-01-16T16:36:40.749Z,19.07
2019-01-16T16:39:26.713Z,13.13
2019-01-16T16:42:01.216Z,21.73
2019-01-16T16:44:56.977Z,16.43
2019-01-16T16:47:45.280Z,15.03
2019-01-16T16:50:30.435Z,16.27
2019-01-16T16:53:29.492Z,15.60
2019-01-16T16:56:25.035Z,19.20
2019-01-16T16:59:19.321Z,17.33
2019-01-16T17:02:03.748Z,14.97
2019-01-16T17:04:49.041Z,11.90
2019-01-16T17:07:44.958Z,11.23
2019-01-16T17:10:37.581Z,14.57
2019-01-16T17:13:14.134Z,11.20
2019-01-16T17:16:04.017Z,15.77
2019-01-16T17:18:49.362Z,12.77
2019-01-16T17:21:51.444Z,19.77
2019-01-16T17:24:30.404Z,13.60
2019-01-16T17:27:19.876Z,16.47
2019-01-16T17:30:18.535Z,17.40
2019-01-16T17:33:15.469Z,16.87
2019-01-16T17:36:00.367Z,21.03
2019-01-16T17:38:45.970Z,24.53
2019-01-16T17:41:51.105Z,19.63
2019-01-16T17:44:30.751Z,12.87
2019-01-16T17:47:35.953Z,14.37
2019-01-16T17:50:33.903Z,11.83
2019-01-16T17:53:21.886Z,16.83
2019-01-16T17:56:22.527Z,12.97
2019-01-16T17:59:08.127Z,9.90
2019-01-16T18:01:48.447Z,16.10
2019-01-16T18:04:44.379Z,13.63
2019-01-16T18:07:35.998Z,21.43
2019-01-16T18:10:30.081Z,11.63
2019-01-16T18:13:16.722Z,14.70
2019-01-16T18:16:21.553Z,15.73
2019-01-16T18:19:08.344Z,18.77
2019-01-16T18:21:57.938Z,9.13
2019-01-16T18:24:43.363Z,18.37
2019-01-16T18:27:42.315Z,16.60
2019-01-16T18:30:37.932Z,17.33
2019-01-16T18:33:14.600Z,13.87
2019-01-16T18:35:54.154Z,11.33
2019-01-16T18:38:39.491Z,18.10
2019-01-16T18:41:21.625Z,16.73
2019-01-16T18:44:08.580Z,14.77
2019-01-16T18:46:58.142Z,17.67
2019-01-16T18:49:57.139Z,22.93
2019-01-16T18:52:43.885Z,27.83
2019-01-16T18:55:31.371Z,16.00
2019-01-16T18:58:28.822Z,15.63
2019-01-16T19:01:11.562Z,16.53
2019-01-16T19:03:55.819Z,16.20
2019-01-16T19:07:02.809Z,21.33
2019-01-16T19:09:50.937Z,20.87
2019-01-16T19:12:36.648Z,22.43
2019-01-16T19:15:24.602Z,16.93
2019-01-16T19:18:11.351Z,20.33
2019-01-16T19:21:06.817Z,16.40
2019-01-16T19:23:48.817Z,17.90
2019-01-16T19:26:45.637Z,15.57
2019-01-16T19:29:30.012Z,15.13
2019-01-16T19:32:22.768Z,18.80
2019-01-16T19:35:08.011Z,20.70
2019-01-16T19:37:51.460Z,17.23
2019-01-16T19:40:38.110Z,16.80
2019-01-16T19:43:23.597Z,21.37
2019-01-16T19:46:10.057Z,16.83
2019-01-16T19:48:55.451Z,20.83
2019-01-16T19:51:50.058Z,28.97
2019-01-16T19:54:49.118Z,18.23
2019-01-16T19:57:38.438Z,15.07
2019-01-16T20:00:28.238Z,12.80
2019-01-16T20:03:20.055Z,16.90
2019-01-16T20:06:22.184Z,20.57
2019-01-16T20:09:07.408Z,14.80
2019-01-16T20:11:48.040Z,13.57
2019-01-16T20:14:44.181Z,19.13
2019-01-16T20:17:30.594Z,23.20
2019-01-16T20:20:08.795Z,17.93
2019-01-16T20:22:54.317Z,18.67
2019-01-16T20:25:41.355Z,20.90
2019-01-16T20:28:27.016Z,21.00
2019-01-16T20:31:16.344Z,20.57
2019-01-16T20:34:01.544Z,18.03
2019-01-16T20:36:47.278Z,21.27
2019-01-16T20:39:26.841Z,22.43
2019-01-16T20:42:09.937Z,20.40
2019-01-16T20:44:54.359Z,16.37
2019-01-16T20:47:39.629Z,21.57
2019-01-16T20:50:35.889Z,19.03
2019-01-16T20:53:29.018Z,19.83
2019-01-16T20:56:18.425Z,20.70
2019-01-16T20:59:05.159Z,18.20
2019-01-16T21:01:57.507Z,25.23
2019-01-16T21:04:53.068Z,20.13
2019-01-16T21:07:32.732Z,19.30
2019-01-16T21:10:56.464Z,23.50
2019-01-16T21:13:49.211Z,17.37
2019-01-16T21:16:34.660Z,23.27
2019-01-16T21:19:39.689Z,23.90
2019-01-16T21:22:29.157Z,21.90
2019-01-16T21:25:16.380Z,20.73
2019-01-16T21:27:57.485Z,24.13
2019-01-16T21:30:59.443Z,21.93
2019-01-16T21:33:48.889Z,24.43
2019-01-16T21:36:27.509Z,20.80
2019-01-16T21:39:26.563Z,25.53
2019-01-16T21:42:19.481Z,25.43
2019-01-16T21:45:09.238Z,22.00
2019-01-16T21:48:01.839Z,20.73
2019-01-16T21:50:57.289Z,15.63
2019-01-16T21:53:30.670Z,19.83
2019-01-16T21:56:23.472Z,19.93
2019-01-16T21:59:10.107Z,24.97
2019-01-16T22:01:59.673Z,24.17
2019-01-16T22:04:55.371Z,21.17
2019-01-16T22:07:40.857Z,22.07
2019-01-16T22:10:26.554Z,21.33
2019-01-16T22:13:10.650Z,18.50
2019-01-16T22:15:57.278Z,21.27
2019-01-16T22:18:59.421Z,22.13
2019-01-16T22:21:46.140Z,22.87
2019-01-16T22:24:31.550Z,23.13
2019-01-16T22:27:09.933Z,23.27
2019-01-16T22:30:11.967Z,21.37
2019-01-16T22:33:17.064Z,21.17
2019-01-16T22:36:22.029Z,30.60
2019-01-16T22:39:07.431Z,27.93
2019-01-16T22:41:45.321Z,26.53
2019-01-16T22:44:31.971Z,31.97
2019-01-16T22:47:17.308Z,26.97
2019-01-16T22:50:03.936Z,28.07
2019-01-16T22:53:05.503Z,26.33
2019-01-16T22:56:04.018Z,36.33
2019-01-16T22:58:54.440Z,31.27
2019-01-16T23:01:27.913Z,27.77
2019-01-16T23:04:29.597Z,22.63
2019-01-16T23:07:14.641Z,25.87
2019-01-16T23:10:09.023Z,23.67
2019-01-16T23:12:58.543Z,34.00
2019-01-16T23:15:51.251Z,25.10
2019-01-16T23:18:40.625Z,25.67
2019-01-16T23:21:33.403Z,28.37
2019-01-16T23:24:09.485Z,23.53
2019-01-16T23:26:48.191Z,24.70
2019-01-16T23:29:33.731Z,25.40
2019-01-16T23:32:26.510Z,32.00
2019-01-16T23:35:16.177Z,27.17
2019-01-16T23:38:05.363Z,25.87
2019-01-16T23:40:57.647Z,30.17
2019-01-16T23:43:39.519Z,24.70
2019-01-16T23:46:24.685Z,25.63
2019-01-16T23:52:10.458Z,26.87
2019-01-16T23:55:06.372Z,25.20
2019-01-16T23:57:54.694Z,30.50
